createdAt,value
2019-06-26T00:01:10.342Z,9.98
2019-06-26T00:03:42.710Z,11.45
2019-06-26T00:06:14.920Z,8.75
2019-06-26T00:08:47.350Z,11.63
2019-06-26T00:11:19.389Z,9.93
2019-06-26T00:13:51.770Z,13.15
2019-06-26T00:16:24.111Z,8.75
2019-06-26T00:18:56.511Z,11.05
2019-06-26T00:21:29.869Z,9.85
2019-06-26T00:24:02.358Z,9.47
2019-06-26T00:26:34.842Z,11.00
2019-06-26T00:29:07.288Z,13.00
2019-06-26T00:31:39.540Z,11.48
2019-06-26T00:34:12.089Z,10.95
2019-06-26T00:36:44.327Z,10.63
2019-06-26T00:39:16.478Z,9.67
2019-06-26T00:41:48.733Z,11.20
2019-06-26T00:44:21.145Z,10.25
2019-06-26T00:46:53.437Z,10.32
2019-06-26T00:49:25.872Z,10.32
2019-06-26T00:51:58.386Z,9.63
2019-06-26T00:54:30.690Z,11.15
2019-06-26T00:57:03.103Z,9.75
2019-06-26T00:59:35.697Z,8.53
2019-06-26T01:02:08.362Z,9.33
2019-06-26T01:04:42.990Z,8.45
2019-06-26T01:07:15.422Z,10.60
2019-06-26T01:09:47.897Z,9.23
2019-06-26T01:12:20.502Z,9.13
2019-06-26T01:14:52.980Z,8.95
2019-06-26T01:17:25.779Z,8.65
2019-06-26T01:19:58.190Z,8.03
2019-06-26T01:22:30.660Z,8.93
2019-06-26T01:25:02.937Z,7.95
2019-06-26T01:27:37.008Z,8.38
2019-06-26T01:30:09.621Z,10.72
2019-06-26T01:32:42.357Z,9.38
2019-06-26T01:35:14.716Z,10.72
2019-06-26T01:37:46.853Z,9.38
2019-06-26T01:40:20.589Z,10.17
2019-06-26T01:42:53.162Z,10.10
2019-06-26T01:45:25.692Z,9.65
2019-06-26T01:47:57.991Z,9.00
2019-06-26T01:50:30.492Z,10.30
2019-06-26T01:53:02.685Z,10.53
2019-06-26T01:55:34.832Z,8.80
2019-06-26T01:58:07.656Z,10.35
2019-06-26T02:00:39.999Z,12.82
2019-06-26T02:03:12.327Z,11.03
2019-06-26T02:05:44.492Z,10.05
2019-06-26T02:08:16.881Z,11.90
2019-06-26T02:10:49.217Z,12.60
2019-06-26T02:13:21.454Z,13.45
2019-06-26T02:15:53.891Z,10.70
2019-06-26T02:18:48.642Z,11.50
2019-06-26T02:21:21.397Z,12.82
2019-06-26T02:23:53.890Z,14.03
2019-06-26T02:26:26.255Z,11.43
2019-06-26T02:28:58.839Z,10.93
2019-06-26T02:31:31.398Z,13.60
2019-06-26T02:34:03.955Z,12.35
2019-06-26T02:36:36.341Z,13.72
2019-06-26T02:39:09.762Z,11.55
2019-06-26T02:41:42.359Z,11.60
2019-06-26T02:44:14.587Z,13.08
2019-06-26T02:46:47.129Z,11.00
2019-06-26T02:49:19.829Z,11.75
2019-06-26T02:51:51.679Z,13.53
2019-06-26T02:54:23.938Z,13.38
2019-06-26T02:56:56.587Z,12.40
2019-06-26T02:59:28.977Z,12.03
2019-06-26T03:02:00.914Z,13.08
2019-06-26T03:04:32.899Z,11.43
2019-06-26T03:07:05.102Z,11.05
2019-06-26T03:09:37.390Z,10.73
2019-06-26T03:12:09.663Z,11.88
2019-06-26T03:14:41.777Z,10.48
2019-06-26T03:17:13.782Z,11.30
2019-06-26T03:19:47.095Z,10.00
2019-06-26T03:22:19.473Z,10.93
2019-06-26T03:24:51.693Z,9.20
2019-06-26T03:27:24.010Z,12.03
2019-06-26T03:29:59.907Z,9.83
2019-06-26T03:32:32.181Z,9.45
2019-06-26T03:35:04.512Z,11.20
2019-06-26T03:37:36.707Z,10.70
2019-06-26T03:40:09.245Z,10.70
2019-06-26T03:42:41.500Z,11.18
2019-06-26T03:45:25.103Z,9.27
2019-06-26T03:47:48.594Z,12.90
2019-06-26T03:50:20.959Z,9.50
2019-06-26T03:52:53.164Z,9.70
2019-06-26T03:55:25.608Z,10.73
2019-06-26T03:57:57.849Z,10.45
2019-06-26T04:00:40.115Z,11.38
2019-06-26T04:03:12.827Z,10.63
2019-06-26T04:05:45.038Z,10.00
2019-06-26T04:08:16.941Z,13.13
2019-06-26T04:10:49.264Z,9.73
2019-06-26T04:13:21.620Z,10.15
2019-06-26T04:15:54.051Z,11.83
2019-06-26T04:18:26.387Z,9.00
2019-06-26T04:20:58.594Z,9.25
2019-06-26T04:23:31.021Z,10.43
2019-06-26T04:26:02.911Z,10.10
2019-06-26T04:28:35.133Z,8.80
2019-06-26T04:31:07.182Z,10.40
2019-06-26T04:33:39.587Z,10.07
2019-06-26T04:36:13.017Z,9.95
2019-06-26T04:38:45.471Z,10.05
2019-06-26T04:41:17.667Z,11.08
2019-06-26T04:43:49.803Z,9.47
2019-06-26T04:46:21.945Z,10.83
2019-06-26T04:48:54.227Z,12.20
2019-06-26T04:51:26.303Z,10.72
2019-06-26T04:53:58.188Z,13.20
2019-06-26T04:56:30.859Z,9.35
2019-06-26T04:59:03.018Z,13.22
2019-06-26T05:01:35.290Z,10.35
2019-06-26T05:04:07.439Z,13.53
2019-06-26T05:06:39.749Z,12.15
2019-06-26T05:09:11.752Z,13.25
2019-06-26T05:11:43.972Z,12.82
2019-06-26T05:14:16.178Z,11.12
2019-06-26T05:16:48.290Z,10.53
2019-06-26T05:19:20.709Z,11.25
2019-06-26T05:21:52.934Z,10.63
2019-06-26T05:24:25.217Z,11.35
2019-06-26T05:26:57.289Z,10.05
2019-06-26T05:29:29.412Z,11.50
2019-06-26T05:32:01.722Z,10.35
2019-06-26T05:34:34.066Z,11.50
2019-06-26T05:37:06.223Z,10.20
2019-06-26T05:39:38.354Z,9.93
2019-06-26T05:42:10.487Z,12.17
2019-06-26T05:44:42.590Z,13.93
2019-06-26T05:47:17.954Z,9.13
2019-06-26T05:49:51.418Z,11.22
2019-06-26T05:52:23.659Z,13.05
2019-06-26T05:54:55.779Z,10.82
2019-06-26T05:57:27.950Z,10.07
2019-06-26T06:00:00.077Z,11.22
2019-06-26T06:02:32.060Z,10.30
2019-06-26T06:05:04.548Z,10.63
2019-06-26T06:07:36.759Z,10.30
2019-06-26T06:10:09.279Z,12.35
2019-06-26T06:12:41.464Z,8.55
2019-06-26T06:15:14.207Z,10.10
2019-06-26T06:17:46.368Z,10.50
2019-06-26T06:20:24.617Z,11.15
2019-06-26T06:22:56.693Z,10.18
2019-06-26T06:25:28.791Z,10.40
2019-06-26T06:28:01.113Z,12.13
2019-06-26T06:30:33.404Z,12.47
2019-06-26T06:33:05.431Z,12.40
2019-06-26T06:35:37.786Z,11.30
2019-06-26T06:38:10.066Z,12.23
2019-06-26T06:40:43.264Z,10.98
2019-06-26T06:43:15.855Z,12.28
2019-06-26T06:45:48.077Z,12.65
2019-06-26T06:48:20.410Z,10.20
2019-06-26T06:50:52.885Z,10.15
2019-06-26T06:53:24.927Z,11.20
2019-06-26T06:55:56.991Z,13.03
2019-06-26T06:58:30.221Z,10.50
2019-06-26T07:01:02.614Z,11.97
2019-06-26T07:03:34.761Z,10.35
2019-06-26T07:06:07.183Z,9.98
2019-06-26T07:08:39.322Z,9.48
2019-06-26T07:11:11.487Z,10.03
2019-06-26T07:13:43.758Z,10.78
2019-06-26T07:16:16.907Z,10.05
2019-06-26T07:18:49.177Z,9.68
2019-06-26T07:21:21.492Z,10.30
2019-06-26T07:23:53.577Z,9.80
2019-06-26T07:26:25.753Z,8.95
2019-06-26T07:28:57.985Z,10.68
2019-06-26T07:31:31.327Z,12.03
2019-06-26T07:34:03.585Z,11.10
2019-06-26T07:36:35.979Z,10.35
2019-06-26T07:39:09.255Z,10.28
2019-06-26T07:41:41.957Z,12.10
2019-06-26T07:44:14.242Z,10.98
2019-06-26T07:46:46.559Z,12.20
2019-06-26T07:49:18.655Z,11.18
2019-06-26T07:51:50.858Z,11.47
2019-06-26T07:54:23.367Z,10.05
2019-06-26T07:56:55.852Z,11.90
2019-06-26T07:59:29.126Z,11.43
2019-06-26T08:02:01.358Z,10.45
2019-06-26T08:04:33.496Z,11.18
2019-06-26T08:07:05.701Z,12.28
2019-06-26T08:09:37.919Z,10.20
2019-06-26T08:12:10.207Z,11.48
2019-06-26T08:14:42.833Z,12.55
2019-06-26T08:17:14.888Z,10.45
2019-06-26T08:19:47.202Z,13.72
2019-06-26T08:22:19.544Z,12.50
2019-06-26T08:24:51.542Z,10.15
2019-06-26T08:27:23.533Z,9.67
2019-06-26T08:29:55.835Z,12.57
2019-06-26T08:32:28.268Z,9.68
2019-06-26T08:35:00.350Z,9.63
2019-06-26T08:37:32.874Z,14.45
2019-06-26T08:40:05.290Z,10.30
2019-06-26T08:42:37.629Z,9.30
2019-06-26T08:45:10.061Z,11.10
2019-06-26T08:47:42.203Z,10.45
2019-06-26T08:50:15.058Z,11.50
2019-06-26T08:55:19.160Z,11.38
2019-06-26T08:57:51.733Z,13.72
2019-06-26T09:00:24.393Z,9.05
2019-06-26T09:02:56.596Z,11.75
2019-06-26T09:05:28.566Z,11.00
2019-06-26T09:08:00.995Z,18.07
2019-06-26T09:10:33.163Z,8.78
2019-06-26T09:13:05.437Z,11.63
2019-06-26T09:15:37.534Z,10.25
2019-06-26T09:18:09.617Z,8.98
2019-06-26T09:20:42.024Z,9.00
2019-06-26T09:23:14.306Z,15.70
2019-06-26T09:25:46.614Z,11.50
2019-06-26T09:28:18.707Z,8.78
2019-06-26T09:30:50.945Z,11.08
2019-06-26T09:33:23.290Z,7.60
2019-06-26T09:35:55.752Z,8.35
2019-06-26T09:38:28.103Z,11.33
2019-06-26T09:41:00.302Z,12.60
2019-06-26T09:43:32.544Z,8.33
2019-06-26T09:46:04.843Z,8.98
2019-06-26T09:48:52.181Z,9.53
2019-06-26T09:51:13.892Z,9.88
2019-06-26T09:53:47.847Z,8.40
2019-06-26T09:56:20.138Z,11.20
2019-06-26T09:58:52.522Z,10.68
2019-06-26T10:01:25.238Z,8.35
2019-06-26T10:06:28.220Z,11.75
2019-06-26T10:09:00.492Z,8.08
2019-06-26T10:11:34.343Z,8.40
2019-06-26T10:14:06.888Z,9.75
2019-06-26T10:16:38.877Z,10.20
2019-06-26T10:19:11.270Z,9.13
2019-06-26T10:21:43.275Z,9.50
2019-06-26T10:24:15.541Z,7.20
2019-06-26T10:26:47.892Z,8.78
2019-06-26T10:29:20.240Z,9.45
2019-06-26T10:31:52.372Z,7.72
2019-06-26T10:34:24.477Z,9.35
2019-06-26T10:36:56.997Z,7.65
2019-06-26T10:39:29.057Z,9.30
2019-06-26T10:42:01.316Z,11.83
2019-06-26T10:44:33.588Z,10.03
2019-06-26T10:47:06.152Z,8.45
2019-06-26T10:49:38.411Z,8.85
2019-06-26T10:52:10.575Z,9.73
2019-06-26T10:54:44.500Z,9.18
2019-06-26T10:57:16.713Z,8.68
2019-06-26T10:59:49.118Z,9.05
2019-06-26T11:02:21.339Z,9.43
2019-06-26T11:04:53.670Z,8.03
2019-06-26T11:07:26.127Z,8.88
2019-06-26T11:09:58.468Z,7.37
2019-06-26T11:12:31.324Z,8.50
2019-06-26T11:15:03.792Z,7.92
2019-06-26T11:17:36.305Z,8.50
2019-06-26T11:20:10.559Z,9.43
2019-06-26T11:22:42.750Z,11.75
2019-06-26T11:25:15.190Z,7.03
2019-06-26T11:27:47.923Z,7.30
2019-06-26T11:32:51.735Z,6.75
2019-06-26T11:35:24.199Z,7.70
2019-06-26T11:37:56.600Z,6.95
2019-06-26T11:40:29.171Z,7.90
2019-06-26T11:43:01.551Z,8.30
2019-06-26T11:45:33.752Z,6.45
2019-06-26T11:48:06.194Z,6.78
2019-06-26T11:50:38.657Z,7.35
2019-06-26T11:53:11.232Z,6.83
2019-06-26T11:58:15.197Z,7.08
2019-06-26T12:00:47.438Z,7.03
2019-06-26T12:03:19.359Z,7.53
2019-06-26T12:05:52.064Z,6.80
2019-06-26T12:10:54.928Z,6.75
2019-06-26T12:13:26.978Z,6.75
2019-06-26T12:15:59.484Z,6.60
2019-06-26T12:18:31.969Z,7.62
2019-06-26T12:21:04.334Z,6.53
2019-06-26T12:23:36.677Z,5.87
2019-06-26T12:26:08.852Z,6.10
2019-06-26T12:28:41.521Z,6.12
2019-06-26T12:31:13.682Z,6.60
2019-06-26T12:33:45.894Z,9.58
2019-06-26T12:36:18.130Z,8.65
2019-06-26T12:38:50.730Z,7.22
2019-06-26T12:41:24.407Z,5.83
2019-06-26T12:43:56.594Z,6.35
2019-06-26T12:46:29.043Z,5.47
2019-06-26T12:49:01.907Z,6.47
2019-06-26T12:51:34.541Z,6.83
2019-06-26T12:56:37.381Z,6.50
2019-06-26T12:59:09.373Z,7.62
2019-06-26T13:01:41.726Z,6.20
2019-06-26T13:04:14.141Z,5.17
2019-06-26T13:06:46.392Z,6.12
2019-06-26T13:09:18.869Z,5.78
2019-06-26T13:14:21.630Z,5.60
2019-06-26T13:16:53.918Z,6.72
2019-06-26T13:19:26.056Z,7.42
2019-06-26T13:22:00.004Z,6.55
2019-06-26T13:24:32.120Z,11.00
2019-06-26T13:27:04.499Z,6.37
2019-06-26T13:29:37.143Z,6.53
2019-06-26T13:34:40.152Z,5.85
2019-06-26T13:37:12.504Z,5.33
2019-06-26T13:39:44.953Z,6.03
2019-06-26T13:42:18.501Z,5.37
2019-06-26T13:47:21.986Z,7.20
2019-06-26T13:49:54.194Z,7.72
2019-06-26T13:52:26.409Z,5.72
2019-06-26T13:54:58.599Z,6.47
2019-06-26T13:57:31.763Z,8.15
2019-06-26T14:00:04.791Z,6.22
2019-06-26T14:02:37.369Z,5.58
2019-06-26T14:05:09.918Z,6.20
2019-06-26T14:07:42.178Z,7.00
2019-06-26T14:10:14.857Z,7.37
2019-06-26T14:15:18.327Z,7.25
2019-06-26T14:17:50.492Z,7.15
2019-06-26T14:20:23.253Z,7.22
2019-06-26T14:22:55.655Z,5.92
2019-06-26T14:25:27.947Z,7.15
2019-06-26T14:28:00.242Z,6.75
2019-06-26T14:30:32.439Z,7.45
2019-06-26T14:33:04.607Z,7.40
2019-06-26T14:35:36.816Z,7.85
2019-06-26T14:38:08.941Z,6.35
2019-06-26T14:40:41.437Z,6.22
2019-06-26T14:43:13.503Z,6.95
2019-06-26T14:45:45.835Z,8.60
2019-06-26T14:48:18.074Z,7.10
2019-06-26T14:50:50.323Z,6.78
2019-06-26T14:53:22.661Z,6.97
2019-06-26T14:55:55.129Z,8.65
2019-06-26T14:58:27.475Z,6.80
2019-06-26T15:00:59.966Z,8.70
2019-06-26T15:03:32.154Z,7.65
2019-06-26T15:06:15.780Z,7.40
2019-06-26T15:08:38.156Z,6.87
2019-06-26T15:11:10.339Z,9.35
2019-06-26T15:13:42.378Z,7.45
2019-06-26T15:16:14.860Z,11.65
2019-06-26T15:18:47.084Z,10.88
2019-06-26T15:21:19.351Z,7.37
2019-06-26T15:23:51.681Z,9.18
2019-06-26T15:26:24.021Z,7.37
2019-06-26T15:28:56.432Z,8.80
2019-06-26T15:31:28.669Z,7.42
2019-06-26T15:34:00.846Z,7.37
2019-06-26T15:36:33.325Z,8.75
2019-06-26T15:39:06.211Z,7.28
2019-06-26T15:41:39.485Z,8.40
2019-06-26T15:44:12.137Z,9.83
2019-06-26T15:46:44.712Z,7.67
2019-06-26T15:49:16.910Z,7.95
2019-06-26T15:51:49.413Z,9.30
2019-06-26T15:54:21.611Z,9.50
2019-06-26T15:56:53.921Z,7.67
2019-06-26T15:59:26.179Z,7.30
2019-06-26T16:01:58.941Z,7.80
2019-06-26T16:07:02.056Z,7.83
2019-06-26T16:09:35.185Z,7.67
2019-06-26T16:12:07.336Z,8.03
2019-06-26T16:14:40.066Z,7.55
2019-06-26T16:19:49.771Z,10.28
2019-06-26T16:22:31.537Z,7.53
2019-06-26T16:24:56.178Z,9.08
2019-06-26T16:27:28.658Z,8.75
2019-06-26T16:30:00.830Z,10.48
2019-06-26T16:32:33.490Z,7.47
2019-06-26T16:35:05.885Z,7.80
2019-06-26T16:37:39.607Z,8.48
2019-06-26T16:40:12.409Z,8.20
2019-06-26T16:45:15.769Z,7.80
2019-06-26T16:50:19.698Z,8.03
2019-06-26T16:52:51.694Z,9.65
2019-06-26T16:55:23.849Z,8.77
2019-06-26T16:57:56.013Z,9.03
2019-06-26T17:00:28.322Z,9.08
2019-06-26T17:03:00.411Z,7.90
2019-06-26T17:05:32.383Z,14.53
2019-06-26T17:08:04.626Z,10.03
2019-06-26T17:10:36.610Z,9.63
2019-06-26T17:13:09.018Z,8.60
2019-06-26T17:15:41.203Z,7.58
2019-06-26T17:18:13.273Z,7.70
2019-06-26T17:20:45.325Z,9.23
2019-06-26T17:23:17.280Z,8.60
2019-06-26T17:25:49.436Z,8.20
2019-06-26T17:28:21.508Z,9.98
2019-06-26T17:30:53.518Z,9.93
2019-06-26T17:33:26.118Z,11.67
2019-06-26T17:35:58.013Z,12.40
2019-06-26T17:38:30.097Z,10.25
2019-06-26T17:41:02.610Z,8.40
2019-06-26T17:43:34.814Z,9.48
2019-06-26T17:46:07.313Z,8.85
2019-06-26T17:48:39.552Z,8.53
2019-06-26T17:51:11.644Z,7.83
2019-06-26T17:53:43.808Z,7.93
2019-06-26T17:56:15.818Z,9.00
2019-06-26T17:58:48.123Z,9.03
2019-06-26T18:01:20.212Z,8.33
2019-06-26T18:03:52.199Z,8.40
2019-06-26T18:06:24.132Z,9.57
2019-06-26T18:08:56.395Z,9.90
2019-06-26T18:11:29.371Z,8.40
2019-06-26T18:14:01.448Z,12.30
2019-06-26T18:16:33.658Z,9.80
2019-06-26T18:19:06.774Z,7.70
2019-06-26T18:21:38.947Z,9.20
2019-06-26T18:24:11.226Z,9.93
2019-06-26T18:26:43.473Z,8.80
2019-06-26T18:29:16.666Z,18.82
2019-06-26T18:31:48.866Z,7.78
2019-06-26T18:34:21.043Z,9.98
2019-06-26T18:36:53.016Z,10.60
2019-06-26T18:39:24.895Z,10.13
2019-06-26T18:41:57.154Z,7.77
2019-06-26T18:44:29.643Z,10.28
2019-06-26T18:47:01.860Z,9.75
2019-06-26T18:49:34.857Z,12.13
2019-06-26T18:54:39.147Z,11.25
2019-06-26T18:57:11.394Z,15.95
2019-06-26T18:59:43.754Z,15.45
2019-06-26T19:02:15.910Z,13.43
2019-06-26T19:04:48.009Z,13.93
2019-06-26T19:07:19.964Z,14.97
2019-06-26T19:09:51.909Z,12.75
2019-06-26T19:12:24.338Z,12.13
2019-06-26T19:14:56.406Z,11.00
2019-06-26T19:17:28.774Z,11.85
2019-06-26T19:20:00.920Z,12.80
2019-06-26T19:22:32.831Z,13.40
2019-06-26T19:25:05.153Z,11.55
2019-06-26T19:27:37.297Z,12.10
2019-06-26T19:30:11.202Z,11.73
2019-06-26T19:32:43.585Z,16.57
2019-06-26T19:35:19.526Z,12.37
2019-06-26T19:37:51.687Z,10.95
2019-06-26T19:40:24.427Z,12.18
2019-06-26T19:45:31.361Z,9.85
2019-06-26T19:48:03.341Z,9.78
2019-06-26T19:50:35.508Z,11.80
2019-06-26T19:53:07.779Z,10.98
2019-06-26T19:55:39.982Z,12.63
2019-06-26T19:58:11.974Z,10.85
2019-06-26T20:00:44.950Z,11.37
2019-06-26T20:04:09.492Z,12.10
2019-06-26T20:07:23.889Z,12.15
2019-06-26T20:09:56.051Z,12.70
2019-06-26T20:12:27.624Z,13.43
2019-06-26T20:14:59.184Z,16.52
2019-06-26T20:17:30.648Z,15.58
2019-06-26T20:20:02.091Z,15.32
2019-06-26T20:22:33.862Z,16.32
2019-06-26T20:25:05.358Z,15.93
2019-06-26T20:27:38.038Z,12.55
2019-06-26T20:30:10.303Z,15.35
2019-06-26T20:32:42.980Z,14.95
2019-06-26T20:35:14.630Z,15.38
2019-06-26T20:37:46.130Z,15.00
2019-06-26T20:40:17.798Z,13.78
2019-06-26T20:42:49.392Z,15.32
2019-06-26T20:45:21.591Z,14.53
2019-06-26T20:47:53.098Z,18.70
2019-06-26T20:50:24.596Z,21.30
2019-06-26T20:52:56.312Z,18.48
2019-06-26T20:55:27.674Z,16.87
2019-06-26T20:57:59.125Z,17.60
2019-06-26T21:00:31.680Z,18.90
2019-06-26T21:03:03.301Z,16.60
2019-06-26T21:05:35.019Z,18.32
2019-06-26T21:08:06.533Z,14.93
2019-06-26T21:10:37.971Z,17.45
2019-06-26T21:13:09.450Z,16.35
2019-06-26T21:15:40.916Z,15.83
2019-06-26T21:18:12.639Z,15.53
2019-06-26T21:20:44.085Z,14.78
2019-06-26T21:23:18.742Z,14.33
2019-06-26T21:25:49.014Z,16.15
2019-06-26T21:28:20.462Z,13.93
2019-06-26T21:30:51.865Z,14.13
2019-06-26T21:33:23.392Z,18.37
2019-06-26T21:35:54.965Z,18.55
2019-06-26T21:38:27.818Z,17.05
2019-06-26T21:43:30.894Z,16.15
2019-06-26T21:46:02.505Z,16.93
2019-06-26T21:48:35.307Z,16.37
2019-06-26T21:51:06.864Z,15.05
2019-06-26T21:53:38.606Z,14.55
2019-06-26T21:56:28.072Z,14.75
2019-06-26T21:59:17.927Z,16.30
2019-06-26T22:02:07.567Z,15.13
2019-06-26T22:04:56.286Z,14.33
2019-06-26T22:07:46.229Z,14.35
2019-06-26T22:10:19.719Z,15.23
2019-06-26T22:12:51.599Z,13.98
2019-06-26T22:15:23.609Z,13.57
2019-06-26T22:17:55.778Z,13.28
2019-06-26T22:20:27.584Z,13.45
2019-06-26T22:22:59.600Z,15.88
2019-06-26T22:25:31.943Z,14.28
2019-06-26T22:28:03.787Z,14.13
2019-06-26T22:30:35.480Z,14.18
2019-06-26T22:33:07.430Z,13.80
2019-06-26T22:35:39.248Z,16.07
2019-06-26T22:38:11.248Z,13.65
2019-06-26T22:40:44.472Z,15.10
2019-06-26T22:43:16.747Z,18.07
2019-06-26T22:45:48.777Z,20.23
2019-06-26T22:48:21.012Z,19.33
2019-06-26T22:50:53.180Z,17.82
2019-06-26T22:53:25.221Z,19.52
2019-06-26T22:56:07.178Z,17.10
2019-06-26T22:58:31.068Z,16.07
2019-06-26T23:01:03.741Z,16.77
2019-06-26T23:03:35.928Z,18.55
2019-06-26T23:06:08.390Z,15.33
2019-06-26T23:08:40.733Z,17.65
2019-06-26T23:11:14.082Z,14.30
2019-06-26T23:13:46.304Z,13.70
2019-06-26T23:16:18.598Z,15.20
2019-06-26T23:18:50.877Z,14.90
2019-06-26T23:21:23.149Z,14.47
2019-06-26T23:23:55.439Z,17.62
2019-06-26T23:26:27.528Z,17.12
2019-06-26T23:28:59.968Z,16.70
2019-06-26T23:31:32.141Z,18.02
2019-06-26T23:34:04.803Z,15.97
2019-06-26T23:36:37.251Z,16.65
2019-06-26T23:39:09.580Z,16.40
2019-06-26T23:41:41.903Z,17.32
2019-06-26T23:44:14.290Z,16.25
2019-06-26T23:46:46.560Z,17.30
2019-06-26T23:49:19.334Z,16.42
2019-06-26T23:51:51.649Z,19.10
2019-06-26T23:54:25.156Z,15.60
2019-06-26T23:56:57.601Z,15.25
2019-06-26T23:59:30.001Z,16.23
